sensor_id;sensor_type;location;lat;lon;timestamp;P1;durP1;ratioP1;P2;durP2;ratioP2
33206;SDS011;19565;46.602;11.534;2022-08-19T00:00:41;3.55;;;1.38;;
33206;SDS011;19565;46.602;11.534;2022-08-19T00:03:09;2.30;;;2.10;;
33206;SDS011;19565;46.602;11.534;2022-08-19T00:05:38;1.17;;;1.05;;
33206;SDS011;19565;46.602;11.534;2022-08-19T00:08:06;2.30;;;1.27;;
33206;SDS011;19565;46.602;11.534;2022-08-19T00:10:36;1.20;;;0.95;;
33206;SDS011;19565;46.602;11.534;2022-08-19T00:13:04;0.50;;;0.50;;
33206;SDS011;19565;46.602;11.534;2022-08-19T00:15:32;1.55;;;0.80;;
33206;SDS011;19565;46.602;11.534;2022-08-19T00:18:00;5.57;;;1.65;;
33206;SDS011;19565;46.602;11.534;2022-08-19T00:20:29;0.80;;;0.80;;
33206;SDS011;19565;46.602;11.534;2022-08-19T00:22:57;1.77;;;1.40;;
33206;SDS011;19565;46.602;11.534;2022-08-19T00:25:27;2.05;;;1.20;;
33206;SDS011;19565;46.602;11.534;2022-08-19T00:27:57;2.03;;;0.55;;
33206;SDS011;19565;46.602;11.534;2022-08-19T00:30:26;1.23;;;0.90;;
33206;SDS011;19565;46.602;11.534;2022-08-19T00:32:54;1.67;;;1.58;;
33206;SDS011;19565;46.602;11.534;2022-08-19T00:35:22;0.90;;;0.80;;
33206;SDS011;19565;46.602;11.534;2022-08-19T00:37:51;1.17;;;1.08;;
33206;SDS011;19565;46.602;11.534;2022-08-19T00:40:21;1.48;;;1.02;;
33206;SDS011;19565;46.602;11.534;2022-08-19T00:42:51;2.92;;;1.58;;
33206;SDS011;19565;46.602;11.534;2022-08-19T00:45:22;1.25;;;1.15;;
33206;SDS011;19565;46.602;11.534;2022-08-19T00:47:52;2.38;;;1.45;;
33206;SDS011;19565;46.602;11.534;2022-08-19T00:50:20;1.52;;;1.35;;
33206;SDS011;19565;46.602;11.534;2022-08-19T00:52:50;1.63;;;1.48;;
33206;SDS011;19565;46.602;11.534;2022-08-19T00:55:19;1.17;;;1.08;;
33206;SDS011;19565;46.602;11.534;2022-08-19T00:57:50;2.47;;;2.28;;
33206;SDS011;19565;46.602;11.534;2022-08-19T01:00:24;2.58;;;1.60;;
33206;SDS011;19565;46.602;11.534;2022-08-19T01:02:53;1.48;;;1.38;;
33206;SDS011;19565;46.602;11.534;2022-08-19T01:05:22;1.20;;;1.10;;
33206;SDS011;19565;46.602;11.534;2022-08-19T01:07:53;3.67;;;1.73;;
33206;SDS011;19565;46.602;11.534;2022-08-19T01:10:24;2.35;;;1.13;;
33206;SDS011;19565;46.602;11.534;2022-08-19T01:12:59;1.25;;;1.15;;
33206;SDS011;19565;46.602;11.534;2022-08-19T01:15:31;1.27;;;1.20;;
33206;SDS011;19565;46.602;11.534;2022-08-19T01:18:04;1.58;;;1.48;;
33206;SDS011;19565;46.602;11.534;2022-08-19T01:20:35;3.75;;;2.20;;
33206;SDS011;19565;46.602;11.534;2022-08-19T01:23:07;0.77;;;0.77;;
33206;SDS011;19565;46.602;11.534;2022-08-19T01:25:38;0.80;;;0.70;;
33206;SDS011;19565;46.602;11.534;2022-08-19T01:28:17;1.58;;;1.38;;
33206;SDS011;19565;46.602;11.534;2022-08-19T01:31:06;1.42;;;1.33;;
33206;SDS011;19565;46.602;11.534;2022-08-19T01:33:53;2.45;;;1.00;;
33206;SDS011;19565;46.602;11.534;2022-08-19T01:36:23;0.70;;;0.65;;
33206;SDS011;19565;46.602;11.534;2022-08-19T01:38:56;2.15;;;1.50;;
33206;SDS011;19565;46.602;11.534;2022-08-19T01:41:26;1.60;;;0.90;;
33206;SDS011;19565;46.602;11.534;2022-08-19T01:43:54;1.05;;;0.95;;
33206;SDS011;19565;46.602;11.534;2022-08-19T01:46:42;6.47;;;1.42;;
33206;SDS011;19565;46.602;11.534;2022-08-19T01:49:11;0.80;;;0.70;;
33206;SDS011;19565;46.602;11.534;2022-08-19T01:51:40;1.92;;;1.50;;
33206;SDS011;19565;46.602;11.534;2022-08-19T01:54:10;2.28;;;1.88;;
33206;SDS011;19565;46.602;11.534;2022-08-19T01:56:53;1.55;;;1.25;;
33206;SDS011;19565;46.602;11.534;2022-08-19T01:59:26;0.77;;;0.73;;
33206;SDS011;19565;46.602;11.534;2022-08-19T02:01:55;1.63;;;1.38;;
33206;SDS011;19565;46.602;11.534;2022-08-19T02:04:23;1.10;;;1.00;;
33206;SDS011;19565;46.602;11.534;2022-08-19T02:06:52;1.38;;;1.20;;
33206;SDS011;19565;46.602;11.534;2022-08-19T02:09:22;0.63;;;0.63;;
33206;SDS011;19565;46.602;11.534;2022-08-19T02:11:50;1.38;;;1.27;;
33206;SDS011;19565;46.602;11.534;2022-08-19T02:14:18;0.50;;;0.50;;
33206;SDS011;19565;46.602;11.534;2022-08-19T02:16:46;1.45;;;0.75;;
33206;SDS011;19565;46.602;11.534;2022-08-19T02:19:14;0.63;;;0.63;;
33206;SDS011;19565;46.602;11.534;2022-08-19T02:21:42;0.88;;;0.88;;
33206;SDS011;19565;46.602;11.534;2022-08-19T02:24:10;1.30;;;0.82;;
33206;SDS011;19565;46.602;11.534;2022-08-19T02:26:40;1.15;;;1.08;;
33206;SDS011;19565;46.602;11.534;2022-08-19T02:29:09;1.02;;;0.93;;
33206;SDS011;19565;46.602;11.534;2022-08-19T02:31:37;0.60;;;0.60;;
33206;SDS011;19565;46.602;11.534;2022-08-19T02:34:05;0.45;;;0.45;;
33206;SDS011;19565;46.602;11.534;2022-08-19T02:36:33;2.30;;;1.15;;
33206;SDS011;19565;46.602;11.534;2022-08-19T02:39:07;1.33;;;1.23;;
33206;SDS011;19565;46.602;11.534;2022-08-19T02:41:35;0.93;;;0.88;;
33206;SDS011;19565;46.602;11.534;2022-08-19T02:44:04;3.47;;;1.27;;
33206;SDS011;19565;46.602;11.534;2022-08-19T02:46:53;1.58;;;1.48;;
33206;SDS011;19565;46.602;11.534;2022-08-19T02:49:21;0.80;;;0.80;;
33206;SDS011;19565;46.602;11.534;2022-08-19T02:51:49;2.05;;;1.20;;
33206;SDS011;19565;46.602;11.534;2022-08-19T02:54:18;0.50;;;0.50;;
33206;SDS011;19565;46.602;11.534;2022-08-19T02:56:46;1.75;;;0.85;;
33206;SDS011;19565;46.602;11.534;2022-08-19T02:59:15;1.55;;;1.10;;
33206;SDS011;19565;46.602;11.534;2022-08-19T03:01:48;0.52;;;0.52;;
33206;SDS011;19565;46.602;11.534;2022-08-19T03:04:16;0.70;;;0.65;;
33206;SDS011;19565;46.602;11.534;2022-08-19T03:06:46;2.38;;;1.23;;
33206;SDS011;19565;46.602;11.534;2022-08-19T03:09:15;0.77;;;0.77;;
33206;SDS011;19565;46.602;11.534;2022-08-19T03:11:44;6.28;;;1.65;;
33206;SDS011;19565;46.602;11.534;2022-08-19T03:14:19;1.80;;;0.77;;
33206;SDS011;19565;46.602;11.534;2022-08-19T03:16:48;0.70;;;0.60;;
33206;SDS011;19565;46.602;11.534;2022-08-19T03:19:18;1.15;;;1.10;;
33206;SDS011;19565;46.602;11.534;2022-08-19T03:21:47;1.35;;;1.13;;
33206;SDS011;19565;46.602;11.534;2022-08-19T03:24:16;0.90;;;0.88;;
33206;SDS011;19565;46.602;11.534;2022-08-19T03:26:45;0.85;;;0.75;;
33206;SDS011;19565;46.602;11.534;2022-08-19T03:29:15;4.70;;;1.77;;
33206;SDS011;19565;46.602;11.534;2022-08-19T03:31:58;1.85;;;1.70;;
33206;SDS011;19565;46.602;11.534;2022-08-19T03:34:30;1.15;;;0.80;;
33206;SDS011;19565;46.602;11.534;2022-08-19T03:37:03;0.50;;;0.50;;
33206;SDS011;19565;46.602;11.534;2022-08-19T03:39:33;0.60;;;0.60;;
33206;SDS011;19565;46.602;11.534;2022-08-19T03:42:03;0.60;;;0.60;;
33206;SDS011;19565;46.602;11.534;2022-08-19T03:44:52;0.30;;;0.30;;
33206;SDS011;19565;46.602;11.534;2022-08-19T03:47:21;0.50;;;0.50;;
33206;SDS011;19565;46.602;11.534;2022-08-19T03:49:49;1.10;;;1.00;;
33206;SDS011;19565;46.602;11.534;2022-08-19T03:52:19;1.15;;;1.05;;
33206;SDS011;19565;46.602;11.534;2022-08-19T03:54:47;0.60;;;0.60;;
33206;SDS011;19565;46.602;11.534;2022-08-19T03:57:15;0.60;;;0.60;;
33206;SDS011;19565;46.602;11.534;2022-08-19T03:59:43;1.17;;;0.70;;
33206;SDS011;19565;46.602;11.534;2022-08-19T04:02:12;1.23;;;1.08;;
33206;SDS011;19565;46.602;11.534;2022-08-19T04:04:43;1.52;;;1.42;;
33206;SDS011;19565;46.602;11.534;2022-08-19T04:07:12;0.70;;;0.70;;
33206;SDS011;19565;46.602;11.534;2022-08-19T04:09:42;0.73;;;0.73;;
33206;SDS011;19565;46.602;11.534;2022-08-19T04:12:10;0.68;;;0.68;;
33206;SDS011;19565;46.602;11.534;2022-08-19T04:14:38;0.30;;;0.30;;
33206;SDS011;19565;46.602;11.534;2022-08-19T04:17:07;1.20;;;1.10;;
33206;SDS011;19565;46.602;11.534;2022-08-19T04:19:35;0.90;;;0.60;;
33206;SDS011;19565;46.602;11.534;2022-08-19T04:22:06;0.55;;;0.55;;
33206;SDS011;19565;46.602;11.534;2022-08-19T04:24:34;0.68;;;0.68;;
33206;SDS011;19565;46.602;11.534;2022-08-19T04:27:03;0.70;;;0.70;;
33206;SDS011;19565;46.602;11.534;2022-08-19T04:29:32;0.65;;;0.65;;
33206;SDS011;19565;46.602;11.534;2022-08-19T04:32:01;1.13;;;1.02;;
33206;SDS011;19565;46.602;11.534;2022-08-19T04:34:35;0.98;;;0.88;;
33206;SDS011;19565;46.602;11.534;2022-08-19T04:37:26;1.35;;;0.85;;
33206;SDS011;19565;46.602;11.534;2022-08-19T04:40:01;0.70;;;0.70;;
33206;SDS011;19565;46.602;11.534;2022-08-19T04:42:57;1.65;;;1.55;;
33206;SDS011;19565;46.602;11.534;2022-08-19T04:45:25;1.15;;;1.05;;
33206;SDS011;19565;46.602;11.534;2022-08-19T04:48:01;1.50;;;0.77;;
33206;SDS011;19565;46.602;11.534;2022-08-19T04:50:50;0.60;;;0.60;;
33206;SDS011;19565;46.602;11.534;2022-08-19T04:53:25;0.90;;;0.88;;
33206;SDS011;19565;46.602;11.534;2022-08-19T04:56:02;0.73;;;0.73;;
33206;SDS011;19565;46.602;11.534;2022-08-19T04:58:33;1.17;;;1.08;;
33206;SDS011;19565;46.602;11.534;2022-08-19T05:01:01;0.30;;;0.30;;
33206;SDS011;19565;46.602;11.534;2022-08-19T05:03:30;2.00;;;1.38;;
33206;SDS011;19565;46.602;11.534;2022-08-19T05:06:03;0.82;;;0.65;;
33206;SDS011;19565;46.602;11.534;2022-08-19T05:08:35;0.60;;;0.60;;
33206;SDS011;19565;46.602;11.534;2022-08-19T05:11:07;0.80;;;0.80;;
33206;SDS011;19565;46.602;11.534;2022-08-19T05:13:39;0.60;;;0.60;;
33206;SDS011;19565;46.602;11.534;2022-08-19T05:16:08;1.05;;;0.82;;
33206;SDS011;19565;46.602;11.534;2022-08-19T05:18:37;1.55;;;1.20;;
33206;SDS011;19565;46.602;11.534;2022-08-19T05:21:24;1.70;;;1.52;;
33206;SDS011;19565;46.602;11.534;2022-08-19T05:24:12;1.33;;;0.90;;
33206;SDS011;19565;46.602;11.534;2022-08-19T05:26:41;0.82;;;0.77;;
33206;SDS011;19565;46.602;11.534;2022-08-19T05:29:12;1.85;;;1.10;;
33206;SDS011;19565;46.602;11.534;2022-08-19T05:31:41;2.33;;;1.77;;
33206;SDS011;19565;46.602;11.534;2022-08-19T05:34:10;1.17;;;1.08;;
33206;SDS011;19565;46.602;11.534;2022-08-19T05:36:45;0.55;;;0.55;;
33206;SDS011;19565;46.602;11.534;2022-08-19T05:39:17;1.73;;;1.15;;
33206;SDS011;19565;46.602;11.534;2022-08-19T05:41:47;2.00;;;1.00;;
33206;SDS011;19565;46.602;11.534;2022-08-19T05:44:17;1.75;;;0.93;;
33206;SDS011;19565;46.602;11.534;2022-08-19T05:46:46;0.68;;;0.65;;
33206;SDS011;19565;46.602;11.534;2022-08-19T05:49:15;1.60;;;0.70;;
33206;SDS011;19565;46.602;11.534;2022-08-19T05:51:44;3.10;;;1.67;;
33206;SDS011;19565;46.602;11.534;2022-08-19T05:54:12;0.60;;;0.60;;
33206;SDS011;19565;46.602;11.534;2022-08-19T05:56:42;1.65;;;1.55;;
33206;SDS011;19565;46.602;11.534;2022-08-19T05:59:13;5.25;;;1.90;;
33206;SDS011;19565;46.602;11.534;2022-08-19T06:01:44;0.45;;;0.40;;
33206;SDS011;19565;46.602;11.534;2022-08-19T06:04:17;1.10;;;1.00;;
33206;SDS011;19565;46.602;11.534;2022-08-19T06:06:49;0.80;;;0.75;;
33206;SDS011;19565;46.602;11.534;2022-08-19T06:09:19;0.47;;;0.47;;
33206;SDS011;19565;46.602;11.534;2022-08-19T06:11:49;0.77;;;0.63;;
33206;SDS011;19565;46.602;11.534;2022-08-19T06:14:22;0.75;;;0.75;;
33206;SDS011;19565;46.602;11.534;2022-08-19T06:16:53;0.70;;;0.70;;
33206;SDS011;19565;46.602;11.534;2022-08-19T06:19:21;1.58;;;0.77;;
33206;SDS011;19565;46.602;11.534;2022-08-19T06:21:51;1.30;;;0.88;;
33206;SDS011;19565;46.602;11.534;2022-08-19T06:24:20;0.80;;;0.73;;
33206;SDS011;19565;46.602;11.534;2022-08-19T06:26:53;0.68;;;0.68;;
33206;SDS011;19565;46.602;11.534;2022-08-19T06:29:27;0.73;;;0.57;;
33206;SDS011;19565;46.602;11.534;2022-08-19T06:31:59;0.75;;;0.55;;
33206;SDS011;19565;46.602;11.534;2022-08-19T06:34:29;0.82;;;0.80;;
33206;SDS011;19565;46.602;11.534;2022-08-19T06:36:59;1.83;;;1.58;;
33206;SDS011;19565;46.602;11.534;2022-08-19T06:39:37;0.68;;;0.68;;
33206;SDS011;19565;46.602;11.534;2022-08-19T06:42:08;0.47;;;0.47;;
33206;SDS011;19565;46.602;11.534;2022-08-19T06:44:40;0.85;;;0.82;;
33206;SDS011;19565;46.602;11.534;2022-08-19T06:47:15;0.47;;;0.47;;
33206;SDS011;19565;46.602;11.534;2022-08-19T06:49:52;0.65;;;0.65;;
33206;SDS011;19565;46.602;11.534;2022-08-19T06:52:28;1.95;;;1.50;;
33206;SDS011;19565;46.602;11.534;2022-08-19T06:54:59;1.00;;;0.75;;
33206;SDS011;19565;46.602;11.534;2022-08-19T06:57:33;2.45;;;1.58;;
33206;SDS011;19565;46.602;11.534;2022-08-19T07:00:02;0.70;;;0.70;;
33206;SDS011;19565;46.602;11.534;2022-08-19T07:02:38;2.83;;;1.98;;
33206;SDS011;19565;46.602;11.534;2022-08-19T07:05:07;1.73;;;1.63;;
33206;SDS011;19565;46.602;11.534;2022-08-19T07:07:36;1.88;;;1.77;;
33206;SDS011;19565;46.602;11.534;2022-08-19T07:10:08;2.10;;;2.00;;
33206;SDS011;19565;46.602;11.534;2022-08-19T07:12:40;1.90;;;1.80;;
33206;SDS011;19565;46.602;11.534;2022-08-19T07:15:09;2.72;;;2.53;;
33206;SDS011;19565;46.602;11.534;2022-08-19T07:17:37;2.40;;;2.30;;
33206;SDS011;19565;46.602;11.534;2022-08-19T07:20:07;3.28;;;3.08;;
33206;SDS011;19565;46.602;11.534;2022-08-19T07:22:37;3.22;;;3.03;;
33206;SDS011;19565;46.602;11.534;2022-08-19T07:25:06;3.55;;;3.35;;
33206;SDS011;19565;46.602;11.534;2022-08-19T07:27:35;4.05;;;3.75;;
33206;SDS011;19565;46.602;11.534;2022-08-19T07:30:07;3.88;;;3.67;;
33206;SDS011;19565;46.602;11.534;2022-08-19T07:32:38;3.50;;;3.30;;
33206;SDS011;19565;46.602;11.534;2022-08-19T07:35:06;7.32;;;5.90;;
33206;SDS011;19565;46.602;11.534;2022-08-19T07:37:35;4.22;;;3.97;;
33206;SDS011;19565;46.602;11.534;2022-08-19T07:40:05;7.43;;;4.30;;
33206;SDS011;19565;46.602;11.534;2022-08-19T07:42:34;4.80;;;4.50;;
33206;SDS011;19565;46.602;11.534;2022-08-19T07:45:03;4.53;;;4.32;;
33206;SDS011;19565;46.602;11.534;2022-08-19T07:47:33;5.32;;;4.93;;
33206;SDS011;19565;46.602;11.534;2022-08-19T07:50:22;5.53;;;5.20;;
33206;SDS011;19565;46.602;11.534;2022-08-19T07:52:50;6.50;;;6.10;;
33206;SDS011;19565;46.602;11.534;2022-08-19T07:55:20;6.15;;;5.75;;
33206;SDS011;19565;46.602;11.534;2022-08-19T07:58:08;7.00;;;6.50;;
33206;SDS011;19565;46.602;11.534;2022-08-19T08:00:37;7.80;;;7.30;;
33206;SDS011;19565;46.602;11.534;2022-08-19T08:03:07;8.30;;;7.80;;
33206;SDS011;19565;46.602;11.534;2022-08-19T08:05:35;9.00;;;8.40;;
33206;SDS011;19565;46.602;11.534;2022-08-19T08:08:21;9.00;;;8.40;;
33206;SDS011;19565;46.602;11.534;2022-08-19T08:11:14;8.95;;;8.45;;
33206;SDS011;19565;46.602;11.534;2022-08-19T08:13:45;9.55;;;8.93;;
33206;SDS011;19565;46.602;11.534;2022-08-19T08:16:29;10.20;;;9.60;;
33206;SDS011;19565;46.602;11.534;2022-08-19T08:19:02;11.10;;;10.50;;
33206;SDS011;19565;46.602;11.534;2022-08-19T08:21:40;10.85;;;10.15;;
33206;SDS011;19565;46.602;11.534;2022-08-19T08:24:11;11.05;;;10.45;;
33206;SDS011;19565;46.602;11.534;2022-08-19T08:26:40;11.55;;;10.95;;
33206;SDS011;19565;46.602;11.534;2022-08-19T08:29:17;11.80;;;11.20;;
33206;SDS011;19565;46.602;11.534;2022-08-19T08:31:46;12.82;;;12.15;;
33206;SDS011;19565;46.602;11.534;2022-08-19T08:34:26;13.60;;;12.90;;
33206;SDS011;19565;46.602;11.534;2022-08-19T08:36:54;14.20;;;13.50;;
33206;SDS011;19565;46.602;11.534;2022-08-19T08:39:22;14.50;;;13.80;;
33206;SDS011;19565;46.602;11.534;2022-08-19T08:41:51;16.30;;;15.50;;
33206;SDS011;19565;46.602;11.534;2022-08-19T08:44:27;14.95;;;14.25;;
33206;SDS011;19565;46.602;11.534;2022-08-19T08:47:11;15.38;;;14.45;;
33206;SDS011;19565;46.602;11.534;2022-08-19T08:49:46;14.70;;;14.00;;
33206;SDS011;19565;46.602;11.534;2022-08-19T08:52:20;14.52;;;13.82;;
33206;SDS011;19565;46.602;11.534;2022-08-19T08:54:59;16.10;;;15.30;;
33206;SDS011;19565;46.602;11.534;2022-08-19T08:57:36;17.35;;;16.55;;
33206;SDS011;19565;46.602;11.534;2022-08-19T09:00:09;17.70;;;16.90;;
33206;SDS011;19565;46.602;11.534;2022-08-19T09:02:42;26.48;;;25.27;;
33206;SDS011;19565;46.602;11.534;2022-08-19T09:05:17;36.42;;;34.92;;
33206;SDS011;19565;46.602;11.534;2022-08-19T09:07:52;45.88;;;43.97;;
33206;SDS011;19565;46.602;11.534;2022-08-19T09:10:29;50.33;;;48.22;;
33206;SDS011;19565;46.602;11.534;2022-08-19T09:13:11;53.50;;;51.30;;
33206;SDS011;19565;46.602;11.534;2022-08-19T09:15:47;54.78;;;52.47;;
33206;SDS011;19565;46.602;11.534;2022-08-19T09:18:18;53.95;;;51.67;;
33206;SDS011;19565;46.602;11.534;2022-08-19T09:20:49;55.15;;;52.78;;
33206;SDS011;19565;46.602;11.534;2022-08-19T09:23:17;50.13;;;48.03;;
33206;SDS011;19565;46.602;11.534;2022-08-19T09:25:52;54.20;;;51.90;;
33206;SDS011;19565;46.602;11.534;2022-08-19T09:28:20;54.35;;;52.05;;
33206;SDS011;19565;46.602;11.534;2022-08-19T09:30:52;51.20;;;48.78;;
33206;SDS011;19565;46.602;11.534;2022-08-19T09:33:21;50.88;;;48.70;;
33206;SDS011;19565;46.602;11.534;2022-08-19T09:35:50;47.60;;;45.60;;
33206;SDS011;19565;46.602;11.534;2022-08-19T09:38:34;50.60;;;47.22;;
33206;SDS011;19565;46.602;11.534;2022-08-19T09:41:09;51.65;;;49.45;;
33206;SDS011;19565;46.602;11.534;2022-08-19T09:43:40;47.75;;;45.75;;
33206;SDS011;19565;46.602;11.534;2022-08-19T09:46:13;49.47;;;47.17;;
33206;SDS011;19565;46.602;11.534;2022-08-19T09:48:43;47.72;;;45.72;;
33206;SDS011;19565;46.602;11.534;2022-08-19T09:51:16;46.78;;;44.78;;
33206;SDS011;19565;46.602;11.534;2022-08-19T09:53:48;54.17;;;51.83;;
33206;SDS011;19565;46.602;11.534;2022-08-19T09:56:20;54.65;;;52.35;;
33206;SDS011;19565;46.602;11.534;2022-08-19T09:58:49;53.97;;;51.67;;
33206;SDS011;19565;46.602;11.534;2022-08-19T10:01:18;50.65;;;48.55;;
33206;SDS011;19565;46.602;11.534;2022-08-19T10:03:49;49.83;;;47.72;;
33206;SDS011;19565;46.602;11.534;2022-08-19T10:06:22;53.65;;;51.33;;
33206;SDS011;19565;46.602;11.534;2022-08-19T10:09:11;51.70;;;49.22;;
33206;SDS011;19565;46.602;11.534;2022-08-19T10:11:41;49.30;;;47.20;;
33206;SDS011;19565;46.602;11.534;2022-08-19T10:14:20;49.70;;;47.60;;
33206;SDS011;19565;46.602;11.534;2022-08-19T10:16:50;49.53;;;47.42;;
33206;SDS011;19565;46.602;11.534;2022-08-19T10:19:18;57.58;;;55.17;;
33206;SDS011;19565;46.602;11.534;2022-08-19T10:21:53;61.60;;;58.92;;
33206;SDS011;19565;46.602;11.534;2022-08-19T10:24:25;58.55;;;55.95;;
33206;SDS011;19565;46.602;11.534;2022-08-19T10:26:54;58.00;;;55.60;;
33206;SDS011;19565;46.602;11.534;2022-08-19T10:29:25;60.03;;;57.53;;
33206;SDS011;19565;46.602;11.534;2022-08-19T10:31:58;62.75;;;60.15;;
33206;SDS011;19565;46.602;11.534;2022-08-19T10:34:29;59.13;;;56.63;;
33206;SDS011;19565;46.602;11.534;2022-08-19T10:36:59;59.13;;;56.67;;
33206;SDS011;19565;46.602;11.534;2022-08-19T10:39:36;60.38;;;57.88;;
33206;SDS011;19565;46.602;11.534;2022-08-19T10:42:09;61.40;;;58.80;;
33206;SDS011;19565;46.602;11.534;2022-08-19T10:44:39;53.58;;;51.30;;
33206;SDS011;19565;46.602;11.534;2022-08-19T10:47:08;53.92;;;51.72;;
33206;SDS011;19565;46.602;11.534;2022-08-19T10:49:50;62.78;;;60.08;;
33206;SDS011;19565;46.602;11.534;2022-08-19T10:52:38;59.65;;;57.05;;
33206;SDS011;19565;46.602;11.534;2022-08-19T10:55:16;64.38;;;61.13;;
33206;SDS011;19565;46.602;11.534;2022-08-19T10:58:03;64.82;;;62.13;;
33206;SDS011;19565;46.602;11.534;2022-08-19T11:00:36;64.32;;;61.63;;
33206;SDS011;19565;46.602;11.534;2022-08-19T11:03:05;57.08;;;54.58;;
33206;SDS011;19565;46.602;11.534;2022-08-19T11:05:34;54.00;;;51.70;;
33206;SDS011;19565;46.602;11.534;2022-08-19T11:08:07;53.45;;;51.05;;
33206;SDS011;19565;46.602;11.534;2022-08-19T11:10:49;49.67;;;47.47;;
33206;SDS011;19565;46.602;11.534;2022-08-19T11:13:20;50.38;;;48.28;;
33206;SDS011;19565;46.602;11.534;2022-08-19T11:15:55;51.83;;;49.63;;
33206;SDS011;19565;46.602;11.534;2022-08-19T11:18:30;50.45;;;48.35;;
33206;SDS011;19565;46.602;11.534;2022-08-19T11:21:04;50.60;;;48.30;;
33206;SDS011;19565;46.602;11.534;2022-08-19T11:23:35;51.70;;;49.50;;
33206;SDS011;19565;46.602;11.534;2022-08-19T11:26:03;51.47;;;49.28;;
33206;SDS011;19565;46.602;11.534;2022-08-19T11:28:32;52.08;;;49.80;;
33206;SDS011;19565;46.602;11.534;2022-08-19T11:31:00;52.90;;;50.70;;
33206;SDS011;19565;46.602;11.534;2022-08-19T11:33:29;52.63;;;50.42;;
33206;SDS011;19565;46.602;11.534;2022-08-19T11:35:59;50.42;;;48.33;;
33206;SDS011;19565;46.602;11.534;2022-08-19T11:38:27;50.92;;;48.83;;
33206;SDS011;19565;46.602;11.534;2022-08-19T11:40:58;47.50;;;45.50;;
33206;SDS011;19565;46.602;11.534;2022-08-19T11:43:29;49.42;;;47.38;;
33206;SDS011;19565;46.602;11.534;2022-08-19T11:46:03;49.75;;;47.65;;
33206;SDS011;19565;46.602;11.534;2022-08-19T11:48:34;48.30;;;46.30;;
33206;SDS011;19565;46.602;11.534;2022-08-19T11:51:03;48.40;;;46.40;;
33206;SDS011;19565;46.602;11.534;2022-08-19T11:53:33;49.85;;;47.65;;
33206;SDS011;19565;46.602;11.534;2022-08-19T11:56:03;48.60;;;46.60;;
33206;SDS011;19565;46.602;11.534;2022-08-19T11:58:32;48.05;;;46.05;;
33206;SDS011;19565;46.602;11.534;2022-08-19T12:01:04;48.60;;;46.60;;
33206;SDS011;19565;46.602;11.534;2022-08-19T12:03:34;53.17;;;50.97;;
33206;SDS011;19565;46.602;11.534;2022-08-19T12:06:03;46.95;;;44.95;;
33206;SDS011;19565;46.602;11.534;2022-08-19T12:08:32;50.70;;;48.55;;
33206;SDS011;19565;46.602;11.534;2022-08-19T12:11:00;52.42;;;50.22;;
33206;SDS011;19565;46.602;11.534;2022-08-19T12:13:30;56.75;;;54.30;;
33206;SDS011;19565;46.602;11.534;2022-08-19T12:15:58;57.75;;;55.33;;
33206;SDS011;19565;46.602;11.534;2022-08-19T12:18:27;55.30;;;53.00;;
33206;SDS011;19565;46.602;11.534;2022-08-19T12:20:56;57.53;;;55.13;;
33206;SDS011;19565;46.602;11.534;2022-08-19T12:23:26;59.67;;;57.17;;
33206;SDS011;19565;46.602;11.534;2022-08-19T12:25:54;57.60;;;55.20;;
33206;SDS011;19565;46.602;11.534;2022-08-19T12:28:25;55.30;;;53.00;;
33206;SDS011;19565;46.602;11.534;2022-08-19T12:30:55;57.47;;;54.22;;
33206;SDS011;19565;46.602;11.534;2022-08-19T12:33:24;55.88;;;53.28;;
33206;SDS011;19565;46.602;11.534;2022-08-19T12:35:54;56.22;;;53.72;;
33206;SDS011;19565;46.602;11.534;2022-08-19T12:38:28;57.50;;;54.92;;
33206;SDS011;19565;46.602;11.534;2022-08-19T12:40:58;59.25;;;56.80;;
33206;SDS011;19565;46.602;11.534;2022-08-19T12:43:26;61.65;;;59.05;;
33206;SDS011;19565;46.602;11.534;2022-08-19T12:45:57;64.78;;;62.08;;
33206;SDS011;19565;46.602;11.534;2022-08-19T12:48:26;62.15;;;59.45;;
33206;SDS011;19565;46.602;11.534;2022-08-19T12:50:59;61.50;;;58.90;;
33206;SDS011;19565;46.602;11.534;2022-08-19T12:53:28;62.03;;;59.42;;
33206;SDS011;19565;46.602;11.534;2022-08-19T12:55:57;60.33;;;57.83;;
33206;SDS011;19565;46.602;11.534;2022-08-19T12:58:26;61.83;;;59.17;;
33206;SDS011;19565;46.602;11.534;2022-08-19T13:00:55;59.78;;;57.28;;
33206;SDS011;19565;46.602;11.534;2022-08-19T13:03:25;60.40;;;57.90;;
33206;SDS011;19565;46.602;11.534;2022-08-19T13:05:55;63.15;;;60.55;;
33206;SDS011;19565;46.602;11.534;2022-08-19T13:08:23;63.53;;;60.92;;
33206;SDS011;19565;46.602;11.534;2022-08-19T13:10:52;64.18;;;61.47;;
33206;SDS011;19565;46.602;11.534;2022-08-19T13:13:20;62.17;;;59.58;;
33206;SDS011;19565;46.602;11.534;2022-08-19T13:15:49;63.22;;;60.63;;
33206;SDS011;19565;46.602;11.534;2022-08-19T13:18:18;65.95;;;63.08;;
33206;SDS011;19565;46.602;11.534;2022-08-19T13:20:48;63.20;;;60.60;;
33206;SDS011;19565;46.602;11.534;2022-08-19T13:23:18;64.82;;;62.13;;
33206;SDS011;19565;46.602;11.534;2022-08-19T13:25:54;64.22;;;61.53;;
33206;SDS011;19565;46.602;11.534;2022-08-19T13:28:23;61.38;;;58.67;;
33206;SDS011;19565;46.602;11.534;2022-08-19T13:30:54;58.20;;;55.72;;
33206;SDS011;19565;46.602;11.534;2022-08-19T13:33:42;64.20;;;61.45;;
33206;SDS011;19565;46.602;11.534;2022-08-19T13:36:11;61.17;;;58.58;;
33206;SDS011;19565;46.602;11.534;2022-08-19T13:38:40;62.15;;;59.55;;
33206;SDS011;19565;46.602;11.534;2022-08-19T13:41:08;62.25;;;59.65;;
33206;SDS011;19565;46.602;11.534;2022-08-19T13:43:40;60.40;;;57.90;;
33206;SDS011;19565;46.602;11.534;2022-08-19T13:46:09;59.22;;;56.58;;
33206;SDS011;19565;46.602;11.534;2022-08-19T13:48:41;58.35;;;55.90;;
33206;SDS011;19565;46.602;11.534;2022-08-19T13:51:09;59.20;;;56.70;;
33206;SDS011;19565;46.602;11.534;2022-08-19T13:53:38;58.80;;;56.38;;
33206;SDS011;19565;46.602;11.534;2022-08-19T13:56:13;58.15;;;55.60;;
33206;SDS011;19565;46.602;11.534;2022-08-19T13:58:43;57.95;;;55.55;;
33206;SDS011;19565;46.602;11.534;2022-08-19T14:01:11;58.25;;;55.85;;
33206;SDS011;19565;46.602;11.534;2022-08-19T14:03:39;59.40;;;56.90;;
33206;SDS011;19565;46.602;11.534;2022-08-19T14:06:09;59.55;;;57.05;;
33206;SDS011;19565;46.602;11.534;2022-08-19T14:08:37;63.47;;;60.78;;
33206;SDS011;19565;46.602;11.534;2022-08-19T14:11:11;61.60;;;59.00;;
33206;SDS011;19565;46.602;11.534;2022-08-19T14:13:40;63.00;;;60.30;;
33206;SDS011;19565;46.602;11.534;2022-08-19T14:16:08;62.92;;;60.33;;
33206;SDS011;19565;46.602;11.534;2022-08-19T14:18:38;62.15;;;59.55;;
33206;SDS011;19565;46.602;11.534;2022-08-19T14:21:07;61.00;;;58.50;;
33206;SDS011;19565;46.602;11.534;2022-08-19T14:23:41;60.22;;;57.53;;
33206;SDS011;19565;46.602;11.534;2022-08-19T14:26:11;61.30;;;58.70;;
33206;SDS011;19565;46.602;11.534;2022-08-19T14:28:41;60.75;;;58.22;;
33206;SDS011;19565;46.602;11.534;2022-08-19T14:31:10;61.53;;;58.85;;
33206;SDS011;19565;46.602;11.534;2022-08-19T14:33:39;55.15;;;52.85;;
33206;SDS011;19565;46.602;11.534;2022-08-19T14:36:10;56.08;;;53.70;;
33206;SDS011;19565;46.602;11.534;2022-08-19T14:38:38;55.72;;;53.42;;
33206;SDS011;19565;46.602;11.534;2022-08-19T14:41:07;56.33;;;53.92;;
33206;SDS011;19565;46.602;11.534;2022-08-19T14:43:37;55.95;;;53.55;;
33206;SDS011;19565;46.602;11.534;2022-08-19T14:46:06;56.80;;;54.40;;
33206;SDS011;19565;46.602;11.534;2022-08-19T14:48:36;56.17;;;53.63;;